Accueil
METAR-TAF:

METAR-TAF

Aéroports :

Akulivik, Québec, Canada

latitude: 60-49N, longitude: 078-09W, altitude: 20 m

Observation

Le bulletin a été fait il y a 1 heure et 6 minutes, à 14:00 UTC
Vent 5 kt de ouest/sud-ouest
Température -12°C
Humidité 78%
Pression 1027 hPa
Visibilité: 12.9 km
Ciel couvert à une hauteur de 1800 ft
neige faible

METAR: CYKO 231400Z 25005KT 8SM -SN OVC018 M12/M15 A3033 RMK SC8 SLP275

Heure: 11:06 (15:06 UTC)


TAF: absent

Observations et prévisions météorologiques de plus de 4000 aéroports (messages METAR et TAF).

Les stations disponibles sont représentées par des disques jaunes et rouges sur la carte.

Passer la souris dessus pour voir le nom de la station.

Cliquer dessus pour voir les observations et prévisions météorologiques.

Pour changer de carte: cliquez sur les boutons verts avec une croix noire pour zoomer, sur le bouton vert avec un tiret pour effectuer un zoom arrière, ou sur les flèches vertes pour les cartes adjacentes.


METAR-TAF: